Time,TemperatureF,DewpointF,PressureIn,WindDirection,WindDirectionDegrees,WindSpeedMPH,WindSpeedGustMPH,Humidity,HourlyPrecipIn,Conditions,Clouds,dailyrainin,SolarRadiationWatts/m^2,SoftwareType,DateUTC
2013-03-08 00:00:00,29.3,26.7,30.41,North,0,0.0,2.0,90,0.00,-SN,,0.00,0.0,WeatherDisplay:10.37,2013-03-08 05:00:00,
2013-03-08 00:02:00,29.3,26.7,30.41,North,360,0.6,2.3,90,0.00,-SN,,0.00,0.0,WeatherDisplay:10.37,2013-03-08 05:02:00,
2013-03-08 00:07:00,29.3,26.7,30.41,NNE,13,1.5,2.3,90,0.00,-SN,,0.00,0.0,WeatherDisplay:10.37,2013-03-08 05:07:00,
2013-03-08 00:12:00,29.1,26.5,30.41,NNE,17,1.3,2.3,90,0.00,-SN,,0.00,0.0,WeatherDisplay:10.37,2013-03-08 05:12:00,
2013-03-08 00:17:00,29.0,26.4,30.41,NNE,16,1.3,2.3,90,0.00,-SN,,0.00,0.0,WeatherDisplay:10.37,2013-03-08 05:17:00,
2013-03-08 00:22:00,28.9,26.3,30.41,North,350,2.1,3.5,90,0.00,-SN,,0.00,0.0,WeatherDisplay:10.37,2013-03-08 05:22:00,
2013-03-08 00:27:00,28.7,26.1,30.41,North,350,1.5,2.3,90,0.00,-SN,,0.00,0.0,WeatherDisplay:10.37,2013-03-08 05:27:00,
2013-03-08 00:33:00,28.4,25.8,30.41,North,350,1.5,2.3,90,0.00,-SN,,0.00,0.0,WeatherDisplay:10.37,2013-03-08 05:33:00,
2013-03-08 00:38:00,28.0,25.4,30.41,NNW,346,1.3,2.3,90,0.00,-SN,,0.00,0.0,WeatherDisplay:10.37,2013-03-08 05:38:00,
2013-03-08 00:43:00,28.0,25.7,30.41,NNW,341,1.2,2.3,91,0.00,-SN,,0.00,0.0,WeatherDisplay:10.37,2013-03-08 05:43:00,
2013-03-08 00:48:00,28.2,26.2,30.41,NNW,341,0.9,1.1,92,0.00,-SN,,0.00,0.0,WeatherDisplay:10.37,2013-03-08 05:48:00,
2013-03-08 00:53:00,28.1,25.8,30.41,NNW,341,1.4,2.3,91,0.00,-SN,,0.00,0.0,WeatherDisplay:10.37,2013-03-08 05:53:00,
2013-03-08 00:58:00,28.0,26.0,30.41,North,355,1.1,2.3,92,0.00,-SN,,0.00,0.0,WeatherDisplay:10.37,2013-03-08 05:58:00,
2013-03-08 01:03:00,27.9,25.9,30.41,NNW,337,1.7,3.5,92,0.00,-SN,,0.00,0.0,WeatherDisplay:10.37,2013-03-08 06:03:00,
2013-03-08 01:08:00,27.7,25.7,30.41,NNW,336,1.1,3.5,92,0.00,-SN,,0.00,0.0,WeatherDisplay:10.37,2013-03-08 06:08:00,
2013-03-08 01:13:00,27.8,25.8,30.41,NNW,327,1.2,2.3,92,0.00,-SN,,0.00,0.0,WeatherDisplay:10.37,2013-03-08 06:13:00,
2013-03-08 01:18:00,27.6,25.6,30.41,NNW,329,1.1,2.3,92,0.00,-SN,,0.00,0.0,WeatherDisplay:10.37,2013-03-08 06:18:00,
2013-03-08 01:23:00,27.3,25.3,30.41,NNW,329,1.2,2.3,92,0.00,-SN,,0.00,0.0,WeatherDisplay:10.37,2013-03-08 06:23:00,
2013-03-08 01:28:00,27.2,25.2,30.42,NNW,344,1.0,3.5,92,0.00,-SN,,0.00,0.0,WeatherDisplay:10.37,2013-03-08 06:28:00,
2013-03-08 01:33:00,27.1,25.1,30.42,NNW,340,1.3,2.3,92,0.00,-SN,,0.00,0.0,WeatherDisplay:10.37,2013-03-08 06:33:00,
2013-03-08 01:38:00,27.0,25.0,30.42,NNW,338,1.2,3.5,92,0.00,-SN,,0.00,0.0,WeatherDisplay:10.37,2013-03-08 06:38:00,
2013-03-08 01:43:00,26.9,24.9,30.42,NNW,344,1.9,3.5,92,0.00,-SN,,0.00,0.0,WeatherDisplay:10.37,2013-03-08 06:43:00,
2013-03-08 01:48:00,26.9,24.9,30.42,NNW,344,0.8,1.1,92,0.00,-SN,,0.00,0.0,WeatherDisplay:10.37,2013-03-08 06:48:00,
2013-03-08 01:53:00,26.7,24.7,30.42,North,355,0.8,2.3,92,0.00,-SN,,0.00,0.0,WeatherDisplay:10.37,2013-03-08 06:53:00,
2013-03-08 01:58:00,26.6,24.6,30.42,North,355,0.3,2.3,92,0.00,-SN,,0.00,0.0,WeatherDisplay:10.37,2013-03-08 06:58:00,
2013-03-08 02:03:00,26.4,24.4,30.42,North,5,1.2,3.5,92,0.00,SCT,,0.00,0.0,WeatherDisplay:10.37,2013-03-08 07:03:00,
2013-03-08 02:08:00,26.4,24.7,30.42,NNW,341,1.2,2.3,93,0.00,SCT,,0.00,0.0,WeatherDisplay:10.37,2013-03-08 07:08:00,
2013-03-08 02:13:00,26.4,24.7,30.42,NNW,341,0.7,1.1,93,0.00,SCT,,0.00,0.0,WeatherDisplay:10.37,2013-03-08 07:13:00,
2013-03-08 02:18:00,26.4,24.7,30.42,NNW,341,0.8,3.5,93,0.00,SCT,,0.00,0.0,WeatherDisplay:10.37,2013-03-08 07:18:00,
2013-03-08 02:23:00,26.3,24.6,30.42,NNW,341,0.8,1.1,93,0.00,SCT,,0.00,0.0,WeatherDisplay:10.37,2013-03-08 07:23:00,
2013-03-08 02:28:00,26.0,24.3,30.42,NNW,340,0.5,2.3,93,0.00,SCT,,0.00,0.0,WeatherDisplay:10.37,2013-03-08 07:28:00,
2013-03-08 02:33:00,25.8,24.1,30.42,NNW,340,1.6,3.5,93,0.00,SCT,,0.00,0.0,WeatherDisplay:10.37,2013-03-08 07:33:00,
2013-03-08 02:38:00,25.9,24.2,30.42,NNW,340,1.2,2.0,93,0.00,SCT,,0.00,0.0,WeatherDisplay:10.37,2013-03-08 07:38:00,
2013-03-08 02:43:00,25.9,24.2,30.42,NNW,340,1.0,2.3,93,0.00,SCT,,0.00,0.0,WeatherDisplay:10.37,2013-03-08 07:43:00,
2013-03-08 02:48:00,25.9,24.2,30.42,NNW,340,1.1,2.3,93,0.00,SCT,,0.00,0.0,WeatherDisplay:10.37,2013-03-08 07:48:00,
2013-03-08 02:53:00,25.9,24.2,30.42,NW,305,1.3,2.3,93,0.00,SCT,,0.00,0.0,WeatherDisplay:10.37,2013-03-08 07:53:00,
2013-03-08 02:58:00,25.9,24.4,30.42,NW,305,1.0,2.3,94,0.00,SCT,,0.00,0.0,WeatherDisplay:10.37,2013-03-08 07:58:00,
2013-03-08 03:03:00,25.7,24.0,30.42,NW,305,0.8,1.1,93,0.00,FEW,,0.00,0.0,WeatherDisplay:10.37,2013-03-08 08:03:00,
2013-03-08 03:08:00,25.6,24.1,30.42,NW,306,1.3,2.3,94,0.00,FEW,,0.00,0.0,WeatherDisplay:10.37,2013-03-08 08:08:00,
2013-03-08 03:13:00,25.2,23.5,30.42,NW,306,0.9,2.3,93,0.00,FEW,,0.00,0.0,WeatherDisplay:10.37,2013-03-08 08:13:00,
2013-03-08 03:18:00,25.1,23.6,30.42,NW,306,1.3,2.3,94,0.00,FEW,,0.00,0.0,WeatherDisplay:10.37,2013-03-08 08:18:00,
2013-03-08 03:23:00,25.1,23.6,30.42,NW,306,1.2,1.2,94,0.00,FEW,,0.00,0.0,WeatherDisplay:10.37,2013-03-08 08:23:00,
2013-03-08 03:28:00,25.3,23.8,30.42,NW,306,1.2,2.3,94,0.00,FEW,,0.00,0.0,WeatherDisplay:10.37,2013-03-08 08:28:00,
2013-03-08 03:33:00,25.4,23.9,30.42,NW,306,1.3,2.3,94,0.00,FEW,,0.00,0.0,WeatherDisplay:10.37,2013-03-08 08:33:00,
2013-03-08 03:38:00,25.4,23.9,30.42,NW,306,1.0,2.3,94,0.00,FEW,,0.00,0.0,WeatherDisplay:10.37,2013-03-08 08:38:00,
2013-03-08 03:43:00,25.3,23.8,30.42,NW,306,0.9,2.3,94,0.00,FEW,,0.00,0.0,WeatherDisplay:10.37,2013-03-08 08:43:00,
2013-03-08 03:48:00,25.3,23.8,30.42,NW,306,0.7,1.1,94,0.00,FEW,,0.00,0.0,WeatherDisplay:10.37,2013-03-08 08:48:00,
2013-03-08 03:53:00,25.1,23.6,30.42,NW,306,0.0,1.1,94,0.00,FEW,,0.00,0.0,WeatherDisplay:10.37,2013-03-08 08:53:00,
2013-03-08 03:58:00,25.0,23.5,30.42,NW,306,0.0,1.0,94,0.00,FEW,,0.00,0.0,WeatherDisplay:10.37,2013-03-08 08:58:00,
2013-03-08 04:03:00,24.8,23.3,30.42,NW,306,0.7,1.1,94,0.00,FEW,,0.00,0.0,WeatherDisplay:10.37,2013-03-08 09:03:00,
2013-03-08 04:08:00,24.6,23.1,30.43,NW,306,1.0,1.1,94,0.00,FEW,,0.00,0.0,WeatherDisplay:10.37,2013-03-08 09:08:00,
2013-03-08 04:13:00,24.3,22.8,30.43,NW,306,1.0,2.3,94,0.00,FEW,,0.00,0.0,WeatherDisplay:10.37,2013-03-08 09:13:00,
2013-03-08 04:18:00,24.2,22.7,30.43,NW,306,0.0,0.0,94,0.00,FEW,,0.00,0.0,WeatherDisplay:10.37,2013-03-08 09:18:00,
2013-03-08 04:23:00,24.1,22.6,30.43,NW,306,0.8,2.3,94,0.00,FEW,,0.00,0.0,WeatherDisplay:10.37,2013-03-08 09:23:00,
2013-03-08 04:28:00,24.0,22.5,30.43,NW,306,0.8,1.1,94,0.00,FEW,,0.00,0.0,WeatherDisplay:10.37,2013-03-08 09:28:00,
2013-03-08 04:33:00,24.1,22.9,30.43,NW,306,0.4,1.1,95,0.00,FEW,,0.00,0.0,WeatherDisplay:10.37,2013-03-08 09:33:00,
2013-03-08 04:38:00,24.0,22.8,30.43,NW,306,0.4,1.1,95,0.00,FEW,,0.00,0.0,WeatherDisplay:10.37,2013-03-08 09:38:00,
2013-03-08 04:43:00,24.0,22.5,30.44,NW,306,1.3,2.3,94,0.00,FEW,,0.00,0.0,WeatherDisplay:10.37,2013-03-08 09:43:00,
2013-03-08 04:48:00,23.8,22.3,30.44,NW,321,1.5,3.5,94,0.00,FEW,,0.00,0.0,WeatherDisplay:10.37,2013-03-08 09:48:00,
2013-03-08 04:53:00,23.9,22.7,30.44,NW,321,1.6,2.3,95,0.00,FEW,,0.00,0.0,WeatherDisplay:10.37,2013-03-08 09:53:00,
2013-03-08 04:58:00,24.0,22.8,30.44,NW,321,2.1,2.3,95,0.00,FEW,,0.00,0.0,WeatherDisplay:10.37,2013-03-08 09:58:00,
2013-03-08 05:03:00,23.9,22.4,30.44,NW,321,1.3,2.3,94,0.00,FEW,,0.00,0.0,WeatherDisplay:10.37,2013-03-08 10:03:00,
2013-03-08 05:08:00,24.1,22.9,30.44,NW,326,2.0,3.5,95,0.00,FEW,,0.00,0.0,WeatherDisplay:10.37,2013-03-08 10:08:00,
2013-03-08 05:13:00,24.1,22.6,30.45,North,351,1.6,3.5,94,0.00,FEW,,0.00,0.0,WeatherDisplay:10.37,2013-03-08 10:13:00,
2013-03-08 05:18:00,24.1,22.9,30.45,North,351,1.4,2.3,95,0.00,FEW,,0.00,0.0,WeatherDisplay:10.37,2013-03-08 10:18:00,
2013-03-08 05:23:00,24.2,23.0,30.45,North,351,0.4,2.3,95,0.00,FEW,,0.00,0.0,WeatherDisplay:10.37,2013-03-08 10:23:00,
2013-03-08 05:28:00,24.3,22.8,30.45,North,351,0.0,0.0,94,0.00,FEW,,0.00,0.0,WeatherDisplay:10.37,2013-03-08 10:28:00,
2013-03-08 05:33:00,24.1,22.6,30.45,NNW,346,1.2,2.3,94,0.00,FEW,,0.00,0.0,WeatherDisplay:10.37,2013-03-08 10:33:00,
2013-03-08 05:38:00,24.3,23.1,30.45,NNW,346,0.7,1.1,95,0.00,FEW,,0.00,0.0,WeatherDisplay:10.37,2013-03-08 10:38:00,
2013-03-08 05:43:00,24.5,23.3,30.45,NNW,346,0.8,1.1,95,0.00,FEW,,0.00,0.0,WeatherDisplay:10.37,2013-03-08 10:43:00,
2013-03-08 05:48:00,24.3,22.8,30.45,NNW,344,1.5,2.3,94,0.00,FEW,,0.00,0.0,WeatherDisplay:10.37,2013-03-08 10:48:00,
2013-03-08 05:53:00,24.2,22.7,30.46,NNW,344,0.6,1.1,94,0.00,FEW,,0.00,0.0,WeatherDisplay:10.37,2013-03-08 10:53:00,
2013-03-08 05:58:00,24.4,22.9,30.46,NNW,344,0.7,1.1,94,0.00,FEW,,0.00,0.0,WeatherDisplay:10.37,2013-03-08 10:58:00,
2013-03-08 06:03:00,24.5,23.3,30.46,NNW,345,0.5,1.1,95,0.00,FEW,,0.00,0.0,WeatherDisplay:10.37,2013-03-08 11:03:00,
2013-03-08 06:08:00,24.6,23.4,30.46,NNW,345,0.0,0.0,95,0.00,FEW,,0.00,0.0,WeatherDisplay:10.37,2013-03-08 11:08:00,
2013-03-08 06:13:00,24.4,22.9,30.46,NNW,344,0.0,0.0,94,0.00,FEW,,0.00,0.0,WeatherDisplay:10.37,2013-03-08 11:13:00,
2013-03-08 06:18:00,24.1,22.6,30.46,NNW,345,0.0,0.0,94,0.00,FEW,,0.00,0.0,WeatherDisplay:10.37,2013-03-08 11:18:00,
2013-03-08 06:23:00,24.0,22.5,30.46,NNW,345,0.0,0.0,94,0.00,FEW,,0.00,0.0,WeatherDisplay:10.37,2013-03-08 11:23:00,
2013-03-08 06:28:00,24.1,22.6,30.46,NNW,345,0.0,0.0,94,0.00,FEW,,0.00,0.0,WeatherDisplay:10.37,2013-03-08 11:28:00,
2013-03-08 06:33:00,24.3,22.8,30.46,NNW,345,0.0,1.0,94,0.00,FEW,,0.00,0.0,WeatherDisplay:10.37,2013-03-08 11:33:00,
2013-03-08 06:38:00,24.4,22.9,30.46,NNW,345,0.0,0.0,94,0.00,FEW,,0.00,0.0,WeatherDisplay:10.37,2013-03-08 11:38:00,
2013-03-08 06:43:00,24.4,22.9,30.46,NNW,345,0.0,0.0,94,0.00,FEW,,0.00,0.0,WeatherDisplay:10.37,2013-03-08 11:43:00,
2013-03-08 06:48:00,24.5,23.0,30.47,NNW,338,1.4,2.3,94,0.00,FEW,,0.00,0.0,WeatherDisplay:10.37,2013-03-08 11:48:00,
2013-03-08 06:53:00,24.7,23.2,30.47,NNW,337,0.0,0.0,94,0.00,FEW,,0.00,0.0,WeatherDisplay:10.37,2013-03-08 11:53:00,
2013-03-08 06:58:00,24.9,23.4,30.47,NNW,337,0.0,0.0,94,0.00,FEW,,0.00,0.0,WeatherDisplay:10.37,2013-03-08 11:58:00,
2013-03-08 07:03:00,25.2,23.7,30.47,NNW,337,0.0,0.0,94,0.00,SCT,,0.00,0.0,WeatherDisplay:10.37,2013-03-08 12:03:00,
2013-03-08 07:08:00,25.5,24.0,30.48,NNW,337,0.0,0.0,94,0.00,SCT,,0.00,0.0,WeatherDisplay:10.37,2013-03-08 12:08:00,
2013-03-08 07:13:00,25.7,24.0,30.48,NNW,337,0.0,0.0,93,0.00,SCT,,0.00,0.0,WeatherDisplay:10.37,2013-03-08 12:13:00,
2013-03-08 07:18:00,26.0,24.3,30.48,NNW,337,0.0,0.0,93,0.00,SCT,,0.00,5.0,WeatherDisplay:10.37,2013-03-08 12:18:00,
2013-03-08 07:23:00,26.3,24.6,30.48,NNW,337,0.0,0.0,93,0.00,SCT,,0.00,5.0,WeatherDisplay:10.37,2013-03-08 12:23:00,
2013-03-08 07:28:00,26.6,24.8,30.48,NNW,337,0.0,0.0,93,0.00,SCT,,0.00,7.0,WeatherDisplay:10.37,2013-03-08 12:28:00,
2013-03-08 07:33:00,26.9,25.1,30.49,NNW,337,0.0,0.0,93,0.00,SCT,,0.00,9.0,WeatherDisplay:10.37,2013-03-08 12:33:00,
2013-03-08 07:38:00,27.1,25.3,30.49,NNW,337,0.8,1.1,93,0.00,SCT,,0.00,21.0,WeatherDisplay:10.37,2013-03-08 12:38:00,
2013-03-08 07:43:00,27.5,25.7,30.49,NNW,333,1.8,3.5,93,0.00,SCT,,0.00,21.0,WeatherDisplay:10.37,2013-03-08 12:43:00,
2013-03-08 07:48:00,27.9,26.1,30.49,NNW,340,3.6,4.6,93,0.00,SCT,,0.00,19.0,WeatherDisplay:10.37,2013-03-08 12:48:00,
2013-03-08 07:53:00,28.3,26.3,30.49,NNW,330,1.8,3.5,92,0.00,SCT,,0.00,21.0,WeatherDisplay:10.37,2013-03-08 12:53:00,
2013-03-08 07:58:00,28.5,26.2,30.49,North,350,3.0,3.5,91,0.00,SCT,,0.00,25.0,WeatherDisplay:10.37,2013-03-08 12:58:00,
2013-03-08 08:03:00,28.7,26.1,30.50,North,355,2.4,4.0,90,0.00,BKN,,0.00,28.0,WeatherDisplay:10.37,2013-03-08 13:03:00,
2013-03-08 08:08:00,29.0,26.4,30.50,NNW,337,3.6,3.6,90,0.00,BKN,,0.00,26.0,WeatherDisplay:10.37,2013-03-08 13:08:00,
2013-03-08 08:13:00,29.1,26.5,30.50,NNW,331,2.9,4.0,90,0.00,BKN,,0.00,28.0,WeatherDisplay:10.37,2013-03-08 13:13:00,
2013-03-08 08:18:00,29.3,26.5,30.50,North,355,5.7,5.7,89,0.00,BKN,,0.00,32.0,WeatherDisplay:10.37,2013-03-08 13:18:00,
2013-03-08 08:23:00,29.4,26.8,30.50,NNW,329,3.4,5.8,90,0.00,BKN,,0.00,35.0,WeatherDisplay:10.37,2013-03-08 13:23:00,
2013-03-08 08:28:00,29.6,27.0,30.50,NNW,348,4.1,5.8,90,0.00,BKN,,0.00,33.0,WeatherDisplay:10.37,2013-03-08 13:28:00,
2013-03-08 08:33:00,29.6,27.0,30.50,NE,37,2.7,3.5,90,0.00,BKN,,0.00,35.0,WeatherDisplay:10.37,2013-03-08 13:33:00,
2013-03-08 08:38:00,29.8,27.2,30.50,NNW,331,4.1,5.8,90,0.00,BKN,,0.00,37.0,WeatherDisplay:10.37,2013-03-08 13:38:00,
2013-03-08 08:43:00,29.9,27.3,30.50,NNW,335,4.6,6.9,90,0.00,BKN,,0.00,42.0,WeatherDisplay:10.37,2013-03-08 13:43:00,
2013-03-08 08:48:00,29.9,27.3,30.50,NE,49,3.9,5.8,90,0.00,BKN,,0.00,42.0,WeatherDisplay:10.37,2013-03-08 13:48:00,
2013-03-08 08:53:00,29.9,27.1,30.50,NNE,32,4.1,6.9,89,0.00,BKN,,0.00,42.0,WeatherDisplay:10.37,2013-03-08 13:53:00,
2013-03-08 08:58:00,29.9,27.3,30.51,NNE,31,3.6,7.0,90,0.00,BKN,,0.00,46.0,WeatherDisplay:10.37,2013-03-08 13:58:00,
2013-03-08 09:03:00,29.9,27.1,30.50,NNE,26,3.3,6.9,89,0.00,BKN,,0.00,44.0,WeatherDisplay:10.37,2013-03-08 14:03:00,
2013-03-08 09:08:00,29.9,27.1,30.51,ENE,65,6.9,11.5,89,0.00,BKN,,0.00,53.0,WeatherDisplay:10.37,2013-03-08 14:08:00,
2013-03-08 09:13:00,29.9,27.3,30.50,ENE,68,2.9,3.5,90,0.00,BKN,,0.00,53.0,WeatherDisplay:10.37,2013-03-08 14:13:00,
2013-03-08 09:18:00,30.0,27.4,30.50,NE,44,2.9,6.9,90,0.00,BKN,,0.00,72.0,WeatherDisplay:10.37,2013-03-08 14:18:00,
2013-03-08 09:23:00,30.2,27.6,30.51,North,5,2.8,6.9,90,0.00,BKN,,0.00,67.0,WeatherDisplay:10.37,2013-03-08 14:23:00,
2013-03-08 09:28:00,30.2,27.6,30.51,ENE,67,3.8,3.8,90,0.00,BKN,,0.00,84.0,WeatherDisplay:10.37,2013-03-08 14:28:00,
2013-03-08 09:33:00,30.2,27.3,30.51,NNE,27,5.5,6.9,89,0.00,BKN,,0.00,98.0,WeatherDisplay:10.37,2013-03-08 14:33:00,
2013-03-08 09:38:00,30.6,28.0,30.51,NNE,30,1.8,3.5,90,0.00,BKN,,0.00,100.0,WeatherDisplay:10.37,2013-03-08 14:38:00,
2013-03-08 09:43:00,30.7,27.8,30.51,NNE,15,1.1,3.5,89,0.00,BKN,,0.00,97.0,WeatherDisplay:10.37,2013-03-08 14:43:00,
2013-03-08 09:48:00,30.9,28.3,30.51,NNE,18,2.8,3.5,90,0.00,BKN,,0.00,125.0,WeatherDisplay:10.37,2013-03-08 14:48:00,
2013-03-08 09:53:00,31.0,28.1,30.51,NNE,19,1.5,2.3,89,0.00,BKN,,0.00,160.0,WeatherDisplay:10.37,2013-03-08 14:53:00,
2013-03-08 09:58:00,31.2,28.3,30.51,North,5,4.4,4.6,89,0.00,BKN,,0.00,169.0,WeatherDisplay:10.37,2013-03-08 14:58:00,
2013-03-08 10:03:00,31.2,28.1,30.51,NE,37,4.0,6.9,88,0.00,OVC,,0.00,171.0,WeatherDisplay:10.37,2013-03-08 15:03:00,
2013-03-08 10:08:00,31.3,28.7,30.51,NNE,32,3.4,4.6,90,0.00,OVC,,0.00,149.0,WeatherDisplay:10.37,2013-03-08 15:08:00,
2013-03-08 10:13:00,31.4,28.8,30.51,ENE,69,1.0,2.0,90,0.00,OVC,,0.00,149.0,WeatherDisplay:10.37,2013-03-08 15:13:00,
2013-03-08 10:18:00,31.4,28.5,30.51,NNE,26,1.6,5.0,89,0.00,OVC,,0.00,146.0,WeatherDisplay:10.37,2013-03-08 15:18:00,
2013-03-08 10:23:00,31.4,28.5,30.52,NNE,20,2.6,5.8,89,0.00,OVC,,0.00,148.0,WeatherDisplay:10.37,2013-03-08 15:23:00,
2013-03-08 10:28:00,31.6,29.0,30.51,NNE,13,3.9,5.8,90,0.00,OVC,,0.00,171.0,WeatherDisplay:10.37,2013-03-08 15:28:00,
2013-03-08 10:33:00,31.7,29.1,30.52,ENE,63,3.3,4.6,90,0.00,OVC,,0.00,134.0,WeatherDisplay:10.37,2013-03-08 15:33:00,
2013-03-08 10:38:00,31.6,28.7,30.51,North,5,3.2,3.5,89,0.00,OVC,,0.00,132.0,WeatherDisplay:10.37,2013-03-08 15:38:00,
2013-03-08 10:43:00,31.7,28.8,30.52,North,11,1.8,3.5,89,0.00,OVC,,0.00,141.0,WeatherDisplay:10.37,2013-03-08 15:43:00,
2013-03-08 10:48:00,31.8,29.2,30.52,North,355,1.8,3.5,90,0.00,OVC,,0.00,195.0,WeatherDisplay:10.37,2013-03-08 15:48:00,
2013-03-08 10:53:00,32.1,29.2,30.51,NNW,337,1.7,3.5,89,0.00,OVC,,0.00,165.0,WeatherDisplay:10.37,2013-03-08 15:53:00,
2013-03-08 10:58:00,32.1,28.9,30.51,NNE,19,1.9,3.5,88,0.00,OVC,,0.00,155.0,WeatherDisplay:10.37,2013-03-08 15:58:00,
2013-03-08 11:03:00,32.4,29.5,30.51,ENE,63,1.5,3.5,89,0.00,OVC,,0.00,142.0,WeatherDisplay:10.37,2013-03-08 16:03:00,
2013-03-08 11:08:00,32.6,29.7,30.52,NNW,336,4.8,6.9,89,0.00,OVC,,0.00,107.0,WeatherDisplay:10.37,2013-03-08 16:08:00,
2013-03-08 11:13:00,32.4,29.5,30.52,NNE,18,1.8,4.6,89,0.00,OVC,,0.00,134.0,WeatherDisplay:10.37,2013-03-08 16:13:00,
2013-03-08 11:18:00,32.5,29.6,30.52,North,5,4.3,5.0,89,0.00,OVC,,0.00,155.0,WeatherDisplay:10.37,2013-03-08 16:18:00,
2013-03-08 11:23:00,32.6,29.7,30.51,North,355,3.2,4.0,89,0.00,OVC,,0.00,141.0,WeatherDisplay:10.37,2013-03-08 16:23:00,
2013-03-08 11:28:00,32.6,29.7,30.51,NW,316,2.5,3.5,89,0.00,OVC,,0.00,179.0,WeatherDisplay:10.37,2013-03-08 16:28:00,
2013-03-08 11:33:00,32.7,29.5,30.51,NW,315,3.7,4.6,88,0.00,OVC,,0.00,165.0,WeatherDisplay:10.37,2013-03-08 16:33:00,
2013-03-08 11:38:00,32.7,29.5,30.51,NNE,21,2.3,3.5,88,0.00,OVC,,0.00,162.0,WeatherDisplay:10.37,2013-03-08 16:38:00,
2013-03-08 11:43:00,32.6,29.4,30.51,NNW,333,2.6,4.0,88,0.00,OVC,,0.00,148.0,WeatherDisplay:10.37,2013-03-08 16:43:00,
2013-03-08 11:48:00,33.0,30.1,30.51,North,11,0.4,2.3,89,0.00,OVC,,0.00,153.0,WeatherDisplay:10.37,2013-03-08 16:48:00,
2013-03-08 11:53:00,33.1,29.7,30.51,NNW,340,3.9,5.8,87,0.00,OVC,,0.00,174.0,WeatherDisplay:10.37,2013-03-08 16:53:00,
2013-03-08 11:58:00,33.1,29.9,30.51,NW,323,1.8,2.3,88,0.00,OVC,,0.00,155.0,WeatherDisplay:10.37,2013-03-08 16:58:00,
2013-03-08 12:03:00,33.2,30.0,30.51,NW,321,2.9,4.0,88,0.00,OVC,,0.00,174.0,WeatherDisplay:10.37,2013-03-08 17:03:00,
2013-03-08 12:08:00,33.1,29.9,30.51,NNW,340,5.2,5.8,88,0.00,OVC,,0.00,176.0,WeatherDisplay:10.37,2013-03-08 17:08:00,
2013-03-08 12:13:00,33.3,30.1,30.51,WNW,302,4.9,6.0,88,0.00,OVC,,0.00,183.0,WeatherDisplay:10.37,2013-03-08 17:13:00,
2013-03-08 12:18:00,33.2,30.0,30.51,NW,318,3.1,7.0,88,0.00,OVC,,0.00,223.0,WeatherDisplay:10.37,2013-03-08 17:18:00,
2013-03-08 12:23:00,33.4,30.5,30.51,WNW,298,2.8,4.0,89,0.00,OVC,,0.00,144.0,WeatherDisplay:10.37,2013-03-08 17:23:00,
2013-03-08 12:28:00,33.5,30.3,30.51,WNW,302,4.3,4.3,88,0.00,OVC,,0.00,123.0,WeatherDisplay:10.37,2013-03-08 17:28:00,
2013-03-08 12:33:00,33.4,29.9,30.51,North,9,2.5,4.6,87,0.00,OVC,,0.00,114.0,WeatherDisplay:10.37,2013-03-08 17:33:00,
2013-03-08 12:38:00,33.2,30.0,30.51,NNW,327,3.1,4.6,88,0.00,OVC,,0.00,93.0,WeatherDisplay:10.37,2013-03-08 17:38:00,
2013-03-08 12:43:00,33.3,30.1,30.51,NW,317,1.4,4.6,88,0.00,OVC,,0.00,111.0,WeatherDisplay:10.37,2013-03-08 17:43:00,
2013-03-08 12:48:00,33.5,30.3,30.50,NNW,340,7.4,8.1,88,0.00,OVC,,0.00,134.0,WeatherDisplay:10.37,2013-03-08 17:48:00,
2013-03-08 12:53:00,33.4,30.2,30.51,NW,311,3.7,4.6,88,0.00,OVC,,0.00,121.0,WeatherDisplay:10.37,2013-03-08 17:53:00,
2013-03-08 12:58:00,33.4,30.2,30.50,WNW,303,2.4,8.1,88,0.00,OVC,,0.00,121.0,WeatherDisplay:10.37,2013-03-08 17:58:00,
2013-03-08 13:03:00,33.5,30.3,30.50,NNE,17,3.9,5.0,88,0.00,OVC,,0.00,153.0,WeatherDisplay:10.37,2013-03-08 18:03:00,
2013-03-08 13:08:00,33.7,30.5,30.50,NNW,348,6.4,6.9,88,0.00,OVC,,0.00,135.0,WeatherDisplay:10.37,2013-03-08 18:08:00,
2013-03-08 13:13:00,33.7,30.5,30.50,NNW,332,5.0,6.9,88,0.00,OVC,,0.00,146.0,WeatherDisplay:10.37,2013-03-08 18:13:00,
2013-03-08 13:18:00,33.7,30.5,30.50,NNW,327,6.5,9.2,88,0.00,OVC,,0.00,148.0,WeatherDisplay:10.37,2013-03-08 18:18:00,
2013-03-08 13:23:00,33.5,30.3,30.50,North,5,3.5,5.8,88,0.00,OVC,,0.00,134.0,WeatherDisplay:10.37,2013-03-08 18:23:00,
2013-03-08 13:28:00,33.9,31.0,30.49,NNW,347,3.8,5.8,89,0.00,OVC,,0.00,207.0,WeatherDisplay:10.37,2013-03-08 18:28:00,
2013-03-08 13:33:00,34.4,30.9,30.49,NNW,347,3.0,5.8,87,0.00,OVC,,0.00,185.0,WeatherDisplay:10.37,2013-03-08 18:33:00,
2013-03-08 13:38:00,34.5,31.0,30.49,NNW,334,7.0,9.2,87,0.00,OVC,,0.00,243.0,WeatherDisplay:10.37,2013-03-08 18:38:00,
2013-03-08 13:43:00,34.7,30.9,30.48,North,349,2.8,4.6,86,0.00,OVC,,0.00,214.0,WeatherDisplay:10.37,2013-03-08 18:43:00,
2013-03-08 13:48:00,34.6,30.8,30.48,North,5,3.5,5.8,86,0.00,OVC,,0.00,206.0,WeatherDisplay:10.37,2013-03-08 18:48:00,
2013-03-08 13:53:00,34.7,30.7,30.48,NNE,21,5.6,5.8,85,0.00,OVC,,0.00,172.0,WeatherDisplay:10.37,2013-03-08 18:53:00,
2013-03-08 13:58:00,34.1,30.4,30.48,NNE,26,3.7,5.0,86,0.00,OVC,,0.00,171.0,WeatherDisplay:10.37,2013-03-08 18:58:00,
2013-03-08 14:03:00,34.2,30.4,30.48,NNW,341,2.4,5.8,86,0.00,OVC,,0.00,169.0,WeatherDisplay:10.37,2013-03-08 19:03:00,
2013-03-08 14:08:00,34.2,30.7,30.47,NNW,342,2.9,5.8,87,0.00,OVC,,0.00,141.0,WeatherDisplay:10.37,2013-03-08 19:08:00,
2013-03-08 14:13:00,34.1,30.4,30.48,North,355,3.0,3.5,86,0.00,OVC,,0.00,197.0,WeatherDisplay:10.37,2013-03-08 19:13:00,
2013-03-08 14:18:00,34.3,30.8,30.48,NNW,340,3.0,4.6,87,0.00,OVC,,0.00,230.0,WeatherDisplay:10.37,2013-03-08 19:18:00,
2013-03-08 14:23:00,34.6,31.1,30.48,NNW,343,3.7,7.0,87,0.00,OVC,,0.00,221.0,WeatherDisplay:10.37,2013-03-08 19:23:00,
2013-03-08 14:28:00,34.7,30.7,30.47,NW,317,2.4,5.8,85,0.00,OVC,,0.00,241.0,WeatherDisplay:10.37,2013-03-08 19:28:00,
2013-03-08 14:33:00,34.8,30.5,30.47,WNW,294,3.1,3.5,84,0.00,OVC,,0.00,200.0,WeatherDisplay:10.37,2013-03-08 19:33:00,
2013-03-08 14:38:00,34.6,30.3,30.48,NNW,347,3.9,5.8,84,0.00,OVC,,0.00,213.0,WeatherDisplay:10.37,2013-03-08 19:38:00,
2013-03-08 14:43:00,34.9,31.1,30.48,NNW,331,2.8,4.0,86,0.00,OVC,,0.00,218.0,WeatherDisplay:10.37,2013-03-08 19:43:00,
2013-03-08 14:48:00,34.9,30.6,30.48,NNW,329,5.3,6.9,84,0.00,OVC,,0.00,163.0,WeatherDisplay:10.37,2013-03-08 19:48:00,
2013-03-08 14:53:00,35.1,31.0,30.48,North,355,4.2,4.6,85,0.00,OVC,,0.00,204.0,WeatherDisplay:10.37,2013-03-08 19:53:00,
2013-03-08 14:58:00,35.1,30.8,30.48,NE,34,2.7,3.5,84,0.00,OVC,,0.00,185.0,WeatherDisplay:10.37,2013-03-08 19:58:00,
2013-03-08 15:03:00,35.3,30.7,30.48,NNE,17,2.4,3.5,83,0.00,OVC,,0.00,199.0,WeatherDisplay:10.37,2013-03-08 20:03:00,
2013-03-08 15:08:00,34.8,30.2,30.48,WNW,302,3.1,3.1,83,0.00,OVC,,0.00,167.0,WeatherDisplay:10.37,2013-03-08 20:08:00,
2013-03-08 15:13:00,35.2,30.6,30.48,NNE,32,4.1,4.6,83,0.00,OVC,,0.00,153.0,WeatherDisplay:10.37,2013-03-08 20:13:00,
2013-03-08 15:18:00,34.7,30.1,30.48,NE,43,1.0,3.5,83,0.00,OVC,,0.00,155.0,WeatherDisplay:10.37,2013-03-08 20:18:00,
2013-03-08 15:23:00,35.0,30.9,30.48,NNW,338,1.8,4.6,85,0.00,OVC,,0.00,178.0,WeatherDisplay:10.37,2013-03-08 20:23:00,
2013-03-08 15:28:00,34.8,30.2,30.48,NNW,328,1.9,3.5,83,0.00,OVC,,0.00,165.0,WeatherDisplay:10.37,2013-03-08 20:28:00,
2013-03-08 15:33:00,34.8,29.9,30.49,West,281,1.1,3.5,82,0.00,OVC,,0.00,156.0,WeatherDisplay:10.37,2013-03-08 20:33:00,
2013-03-08 15:38:00,35.1,30.8,30.48,North,355,3.5,5.8,84,0.00,OVC,,0.00,130.0,WeatherDisplay:10.37,2013-03-08 20:38:00,
2013-03-08 15:43:00,35.4,30.8,30.48,NNE,13,1.2,3.5,83,0.00,OVC,,0.00,158.0,WeatherDisplay:10.37,2013-03-08 20:43:00,
2013-03-08 15:48:00,34.8,29.9,30.48,North,5,1.0,2.0,82,0.00,OVC,,0.00,100.0,WeatherDisplay:10.37,2013-03-08 20:48:00,
2013-03-08 15:53:00,34.9,29.9,30.48,NNW,339,2.0,3.0,82,0.00,OVC,,0.00,109.0,WeatherDisplay:10.37,2013-03-08 20:53:00,
2013-03-08 15:58:00,35.5,30.8,30.48,NW,316,1.0,1.0,83,0.00,OVC,,0.00,193.0,WeatherDisplay:10.37,2013-03-08 20:58:00,
2013-03-08 16:03:00,36.0,30.1,30.48,NNE,24,1.0,3.0,79,0.00,BKN,,0.00,128.0,WeatherDisplay:10.37,2013-03-08 21:03:00,
2013-03-08 16:08:00,36.0,30.1,30.48,NE,35,3.0,4.0,79,0.00,BKN,,0.00,98.0,WeatherDisplay:10.37,2013-03-08 21:08:00,
2013-03-08 16:13:00,35.5,30.0,30.48,NNE,20,2.0,3.0,80,0.00,BKN,,0.00,113.0,WeatherDisplay:10.37,2013-03-08 21:13:00,
2013-03-08 16:18:00,36.3,30.4,30.48,NNW,333,3.0,5.0,79,0.00,BKN,,0.00,169.0,WeatherDisplay:10.37,2013-03-08 21:18:00,
2013-03-08 16:23:00,36.8,31.2,30.48,NW,325,2.0,4.0,80,0.00,BKN,,0.00,114.0,WeatherDisplay:10.37,2013-03-08 21:23:00,
2013-03-08 16:28:00,36.6,30.7,30.48,NNW,336,3.0,5.0,79,0.00,BKN,,0.00,74.0,WeatherDisplay:10.37,2013-03-08 21:28:00,
2013-03-08 16:33:00,35.9,30.0,30.48,NNW,335,3.0,4.0,79,0.00,BKN,,0.00,141.0,WeatherDisplay:10.37,2013-03-08 21:33:00,
2013-03-08 16:38:00,35.9,30.0,30.47,NNE,14,1.0,3.0,79,0.00,BKN,,0.00,93.0,WeatherDisplay:10.37,2013-03-08 21:38:00,
2013-03-08 16:43:00,36.8,31.2,30.47,North,9,2.0,3.0,80,0.00,BKN,,0.00,118.0,WeatherDisplay:10.37,2013-03-08 21:43:00,
2013-03-08 16:48:00,36.9,30.7,30.47,North,360,4.0,5.0,78,0.00,BKN,,0.00,69.0,WeatherDisplay:10.37,2013-03-08 21:48:00,
2013-03-08 16:53:00,36.5,30.6,30.47,NNE,14,2.0,6.0,79,0.00,BKN,,0.00,47.0,WeatherDisplay:10.37,2013-03-08 21:53:00,
2013-03-08 16:58:00,36.0,30.5,30.47,NNE,27,5.0,5.0,80,0.00,BKN,,0.00,58.0,WeatherDisplay:10.37,2013-03-08 21:58:00,
2013-03-08 17:03:00,36.0,30.1,30.47,North,355,2.5,4.0,79,0.00,SCT,,0.00,86.0,WeatherDisplay:10.37,2013-03-08 22:03:00,
2013-03-08 17:08:00,36.4,30.8,30.48,NNE,12,1.2,2.3,80,0.00,SCT,,0.00,70.0,WeatherDisplay:10.37,2013-03-08 22:08:00,
2013-03-08 17:13:00,36.2,30.6,30.48,ENE,59,2.8,3.5,80,0.00,SCT,,0.00,95.0,WeatherDisplay:10.37,2013-03-08 22:13:00,
2013-03-08 17:18:00,36.0,29.8,30.48,NNE,32,3.1,4.0,78,0.00,SCT,,0.00,90.0,WeatherDisplay:10.37,2013-03-08 22:18:00,
2013-03-08 17:23:00,35.7,29.2,30.48,ENE,70,2.4,4.6,77,0.00,SCT,,0.00,67.0,WeatherDisplay:10.37,2013-03-08 22:23:00,
2013-03-08 17:28:00,35.7,29.5,30.48,ENE,71,3.0,6.9,78,0.00,SCT,,0.00,46.0,WeatherDisplay:10.37,2013-03-08 22:28:00,
2013-03-08 17:33:00,35.5,29.3,30.48,NE,42,3.1,4.6,78,0.00,SCT,,0.00,37.0,WeatherDisplay:10.37,2013-03-08 22:33:00,
2013-03-08 17:38:00,35.2,28.7,30.48,East,80,2.4,6.9,77,0.00,SCT,,0.00,35.0,WeatherDisplay:10.37,2013-03-08 22:38:00,
2013-03-08 17:43:00,35.2,29.0,30.48,NNE,13,1.1,3.0,78,0.00,SCT,,0.00,35.0,WeatherDisplay:10.37,2013-03-08 22:43:00,
2013-03-08 17:48:00,35.0,28.8,30.49,NNE,28,1.9,4.0,78,0.00,SCT,,0.00,39.0,WeatherDisplay:10.37,2013-03-08 22:48:00,
2013-03-08 17:53:00,34.8,28.6,30.49,NNW,331,1.4,3.5,78,0.00,SCT,,0.00,32.0,WeatherDisplay:10.37,2013-03-08 22:53:00,
2013-03-08 17:58:00,34.6,28.8,30.49,NE,42,1.4,2.3,79,0.00,SCT,,0.00,23.0,WeatherDisplay:10.37,2013-03-08 22:58:00,
2013-03-08 18:03:00,34.5,28.7,30.49,East,93,1.9,3.5,79,0.00,CLR,,0.00,21.0,WeatherDisplay:10.37,2013-03-08 23:03:00,
2013-03-08 18:08:00,34.4,28.6,30.48,East,93,0.0,1.1,79,0.00,CLR,,0.00,18.0,WeatherDisplay:10.37,2013-03-08 23:08:00,
2013-03-08 18:13:00,34.4,28.6,30.48,East,93,1.1,2.3,79,0.00,CLR,,0.00,14.0,WeatherDisplay:10.37,2013-03-08 23:13:00,
2013-03-08 18:18:00,34.2,28.1,30.48,East,93,0.0,0.0,78,0.00,CLR,,0.00,11.0,WeatherDisplay:10.37,2013-03-08 23:18:00,
2013-03-08 18:23:00,33.9,28.1,30.48,East,93,0.0,0.0,79,0.00,CLR,,0.00,5.0,WeatherDisplay:10.37,2013-03-08 23:23:00,
2013-03-08 18:28:00,33.5,27.7,30.48,East,93,0.0,0.0,79,0.00,CLR,,0.00,0.0,WeatherDisplay:10.37,2013-03-08 23:28:00,
2013-03-08 18:33:00,33.2,27.7,30.48,East,93,0.0,0.0,80,0.00,CLR,,0.00,0.0,WeatherDisplay:10.37,2013-03-08 23:33:00,
2013-03-08 18:38:00,32.9,27.7,30.48,East,93,0.0,0.0,81,0.00,CLR,,0.00,0.0,WeatherDisplay:10.37,2013-03-08 23:38:00,
2013-03-08 18:43:00,32.8,27.6,30.48,East,93,0.0,0.0,81,0.00,CLR,,0.00,0.0,WeatherDisplay:10.37,2013-03-08 23:43:00,
2013-03-08 18:48:00,32.6,27.7,30.47,East,93,0.0,0.0,82,0.00,CLR,,0.00,0.0,WeatherDisplay:10.37,2013-03-08 23:48:00,
2013-03-08 18:53:00,32.3,27.4,30.47,East,93,0.0,0.0,82,0.00,CLR,,0.00,0.0,WeatherDisplay:10.37,2013-03-08 23:53:00,
2013-03-08 18:58:00,31.9,27.3,30.47,East,93,0.0,0.0,83,0.00,CLR,,0.00,0.0,WeatherDisplay:10.37,2013-03-08 23:58:00,
2013-03-08 19:03:00,31.7,27.4,30.48,East,93,0.0,0.0,84,0.00,CLR,,0.00,0.0,WeatherDisplay:10.37,2013-03-09 00:03:00,
2013-03-08 19:08:00,31.6,27.3,30.48,East,93,0.0,0.0,84,0.00,CLR,,0.00,0.0,WeatherDisplay:10.37,2013-03-09 00:08:00,
2013-03-08 19:13:00,31.4,27.1,30.48,East,93,0.0,0.0,84,0.00,CLR,,0.00,0.0,WeatherDisplay:10.37,2013-03-09 00:13:00,
2013-03-08 19:18:00,31.1,27.1,30.48,East,93,0.0,0.0,85,0.00,CLR,,0.00,0.0,WeatherDisplay:10.37,2013-03-09 00:18:00,
2013-03-08 19:23:00,30.8,27.1,30.48,East,93,0.0,0.0,86,0.00,CLR,,0.00,0.0,WeatherDisplay:10.37,2013-03-09 00:23:00,
2013-03-08 19:28:00,30.6,26.9,30.48,East,93,0.0,0.0,86,0.00,CLR,,0.00,0.0,WeatherDisplay:10.37,2013-03-09 00:28:00,
2013-03-08 19:33:00,30.6,26.9,30.48,East,93,0.0,0.0,86,0.00,CLR,,0.00,0.0,WeatherDisplay:10.37,2013-03-09 00:33:00,
2013-03-08 19:38:00,30.5,26.8,30.48,East,93,0.0,0.0,86,0.00,CLR,,0.00,0.0,WeatherDisplay:10.37,2013-03-09 00:38:00,
2013-03-08 19:43:00,30.2,26.8,30.48,East,93,0.0,0.0,87,0.00,CLR,,0.00,0.0,WeatherDisplay:10.37,2013-03-09 00:43:00,
2013-03-08 19:48:00,30.2,26.8,30.48,East,93,0.0,0.0,87,0.00,CLR,,0.00,0.0,WeatherDisplay:10.37,2013-03-09 00:48:00,
2013-03-08 19:53:00,30.1,27.0,30.48,East,93,0.0,0.0,88,0.00,CLR,,0.00,0.0,WeatherDisplay:10.37,2013-03-09 00:53:00,
2013-03-08 19:58:00,29.9,26.5,30.48,East,93,0.0,0.0,87,0.00,CLR,,0.00,0.0,WeatherDisplay:10.37,2013-03-09 00:58:00,
2013-03-08 20:03:00,29.8,26.7,30.48,East,93,0.0,0.0,88,0.00,CLR,,0.00,0.0,WeatherDisplay:10.37,2013-03-09 01:03:00,
2013-03-08 20:08:00,29.7,26.6,30.48,East,93,0.0,0.0,88,0.00,CLR,,0.00,0.0,WeatherDisplay:10.37,2013-03-09 01:08:00,
2013-03-08 20:13:00,29.6,26.5,30.47,East,93,0.0,0.0,88,0.00,CLR,,0.00,0.0,WeatherDisplay:10.37,2013-03-09 01:13:00,
2013-03-08 20:18:00,29.5,26.4,30.47,East,93,0.0,0.0,88,0.00,CLR,,0.00,0.0,WeatherDisplay:10.37,2013-03-09 01:18:00,
2013-03-08 20:23:00,29.4,26.3,30.48,East,93,0.0,0.0,88,0.00,CLR,,0.00,0.0,WeatherDisplay:10.37,2013-03-09 01:23:00,
2013-03-08 20:28:00,29.4,26.6,30.47,East,93,0.0,0.0,89,0.00,CLR,,0.00,0.0,WeatherDisplay:10.37,2013-03-09 01:28:00,
2013-03-08 20:33:00,29.4,26.6,30.47,East,93,0.0,0.0,89,0.00,CLR,,0.00,0.0,WeatherDisplay:10.37,2013-03-09 01:33:00,
2013-03-08 20:38:00,29.2,26.4,30.47,East,93,0.0,0.0,89,0.00,CLR,,0.00,0.0,WeatherDisplay:10.37,2013-03-09 01:38:00,
2013-03-08 20:43:00,29.1,26.3,30.47,East,93,0.0,0.0,89,0.00,CLR,,0.00,0.0,WeatherDisplay:10.37,2013-03-09 01:43:00,
2013-03-08 20:48:00,29.0,26.2,30.47,East,93,1.3,2.3,89,0.00,CLR,,0.00,0.0,WeatherDisplay:10.37,2013-03-09 01:48:00,
2013-03-08 20:53:00,28.9,26.1,30.48,East,93,0.0,0.0,89,0.00,CLR,,0.00,0.0,WeatherDisplay:10.37,2013-03-09 01:53:00,
2013-03-08 20:58:00,28.8,26.2,30.48,East,93,0.0,0.0,90,0.00,CLR,,0.00,0.0,WeatherDisplay:10.37,2013-03-09 01:58:00,
2013-03-08 21:03:00,28.8,26.0,30.48,East,93,0.0,0.0,89,0.00,CLR,,0.00,0.0,WeatherDisplay:10.37,2013-03-09 02:03:00,
2013-03-08 21:08:00,28.7,25.9,30.48,East,93,0.0,0.0,89,0.00,CLR,,0.00,0.0,WeatherDisplay:10.37,2013-03-09 02:08:00,
2013-03-08 21:13:00,28.6,25.8,30.48,East,93,0.0,0.0,89,0.00,CLR,,0.00,0.0,WeatherDisplay:10.37,2013-03-09 02:13:00,
2013-03-08 21:18:00,28.5,25.9,30.48,East,93,0.0,0.0,90,0.00,CLR,,0.00,0.0,WeatherDisplay:10.37,2013-03-09 02:18:00,
2013-03-08 21:23:00,28.5,25.9,30.48,East,93,0.0,0.0,90,0.00,CLR,,0.00,0.0,WeatherDisplay:10.37,2013-03-09 02:23:00,
2013-03-08 21:28:00,28.3,25.7,30.48,East,93,0.0,0.0,90,0.00,CLR,,0.00,0.0,WeatherDisplay:10.37,2013-03-09 02:28:00,
2013-03-08 21:33:00,28.3,26.0,30.48,East,93,0.0,0.0,91,0.00,CLR,,0.00,0.0,WeatherDisplay:10.37,2013-03-09 02:33:00,
2013-03-08 21:38:00,28.2,25.6,30.48,East,93,0.0,0.0,90,0.00,CLR,,0.00,0.0,WeatherDisplay:10.37,2013-03-09 02:38:00,
2013-03-08 21:43:00,28.1,25.5,30.47,East,93,0.0,0.0,90,0.00,CLR,,0.00,0.0,WeatherDisplay:10.37,2013-03-09 02:43:00,
2013-03-08 21:48:00,28.0,25.4,30.48,East,93,0.0,0.0,90,0.00,CLR,,0.00,0.0,WeatherDisplay:10.37,2013-03-09 02:48:00,
2013-03-08 21:53:00,27.9,25.3,30.48,East,93,0.0,0.0,90,0.00,CLR,,0.00,0.0,WeatherDisplay:10.37,2013-03-09 02:53:00,
2013-03-08 21:58:00,27.9,25.6,30.48,East,93,0.0,0.0,91,0.00,CLR,,0.00,0.0,WeatherDisplay:10.37,2013-03-09 02:58:00,
2013-03-08 22:03:00,27.9,25.3,30.48,East,93,0.0,0.0,90,0.00,BKN,,0.00,0.0,WeatherDisplay:10.37,2013-03-09 03:03:00,
2013-03-08 22:08:00,27.7,25.4,30.48,East,93,0.0,0.0,91,0.00,BKN,,0.00,0.0,WeatherDisplay:10.37,2013-03-09 03:08:00,
2013-03-08 22:13:00,27.5,25.0,30.49,East,93,0.0,0.0,90,0.00,BKN,,0.00,0.0,WeatherDisplay:10.37,2013-03-09 03:13:00,
2013-03-08 22:18:00,27.5,25.2,30.49,East,93,0.0,0.0,91,0.00,BKN,,0.00,0.0,WeatherDisplay:10.37,2013-03-09 03:18:00,
2013-03-08 22:23:00,27.4,25.1,30.49,East,93,0.0,0.0,91,0.00,BKN,,0.00,0.0,WeatherDisplay:10.37,2013-03-09 03:23:00,
2013-03-08 22:28:00,27.4,25.1,30.49,East,93,0.0,0.0,91,0.00,BKN,,0.00,0.0,WeatherDisplay:10.37,2013-03-09 03:28:00,
2013-03-08 22:33:00,27.3,25.0,30.49,East,93,0.0,0.0,91,0.00,BKN,,0.00,0.0,WeatherDisplay:10.37,2013-03-09 03:33:00,
2013-03-08 22:38:00,27.2,24.9,30.49,East,93,0.0,0.0,91,0.00,BKN,,0.00,0.0,WeatherDisplay:10.37,2013-03-09 03:38:00,
2013-03-08 22:43:00,27.1,24.8,30.49,East,93,0.0,0.0,91,0.00,BKN,,0.00,0.0,WeatherDisplay:10.37,2013-03-09 03:43:00,
2013-03-08 22:48:00,27.1,24.8,30.49,East,93,0.0,0.0,91,0.00,BKN,,0.00,0.0,WeatherDisplay:10.37,2013-03-09 03:48:00,
2013-03-08 22:53:00,27.0,24.7,30.49,East,93,0.0,0.0,91,0.00,BKN,,0.00,0.0,WeatherDisplay:10.37,2013-03-09 03:53:00,
2013-03-08 22:58:00,26.8,24.5,30.49,East,93,0.7,1.1,91,0.00,BKN,,0.00,0.0,WeatherDisplay:10.37,2013-03-09 03:58:00,
2013-03-08 23:03:00,26.7,24.4,30.49,East,93,0.8,1.1,91,0.00,FEW,,0.00,0.0,WeatherDisplay:10.37,2013-03-09 04:03:00,
2013-03-08 23:08:00,26.7,24.7,30.49,East,93,0.7,1.1,92,0.00,FEW,,0.00,0.0,WeatherDisplay:10.37,2013-03-09 04:08:00,
2013-03-08 23:13:00,26.8,24.8,30.48,East,93,0.7,1.1,92,0.00,FEW,,0.00,0.0,WeatherDisplay:10.37,2013-03-09 04:13:00,
2013-03-08 23:18:00,26.7,24.7,30.48,East,93,0.0,0.0,92,0.00,FEW,,0.00,0.0,WeatherDisplay:10.37,2013-03-09 04:18:00,
2013-03-08 23:23:00,26.6,24.6,30.49,East,93,0.6,1.1,92,0.00,FEW,,0.00,0.0,WeatherDisplay:10.37,2013-03-09 04:23:00,
2013-03-08 23:28:00,26.5,24.5,30.49,East,93,0.9,2.3,92,0.00,FEW,,0.00,0.0,WeatherDisplay:10.37,2013-03-09 04:28:00,
2013-03-08 23:33:00,26.5,24.5,30.49,East,93,0.0,0.0,92,0.00,FEW,,0.00,0.0,WeatherDisplay:10.37,2013-03-09 04:33:00,
2013-03-08 23:38:00,26.4,24.4,30.49,East,93,0.0,0.0,92,0.00,FEW,,0.00,0.0,WeatherDisplay:10.37,2013-03-09 04:38:00,
2013-03-08 23:43:00,26.3,24.3,30.49,East,93,0.0,0.0,92,0.00,FEW,,0.00,0.0,WeatherDisplay:10.37,2013-03-09 04:43:00,
2013-03-08 23:48:00,26.2,24.2,30.48,East,93,0.0,0.0,92,0.00,FEW,,0.00,0.0,WeatherDisplay:10.37,2013-03-09 04:48:00,
2013-03-08 23:53:00,26.1,24.1,30.48,East,93,0.0,0.0,92,0.00,FEW,,0.00,0.0,WeatherDisplay:10.37,2013-03-09 04:53:00,
2013-03-08 23:58:00,26.0,24.0,30.48,East,93,0.6,2.3,92,0.00,FEW,,0.00,0.0,WeatherDisplay:10.37,2013-03-09 04:58:00,